LL64 weather

Ralph E. Daniels Airport
Putnam, Illinois, United States

Public forecast

Using degrees Fahrenheit for public forecast. Weather courtesy of forecast.io.

METAR (pilot weather report)

Closest report is Marshall County Airport, 10.8 nm (20.0 km) S. Retrieved 2019/08/19 13:35 UTC (14 minutes ago):

KC75 191335Z AUTO 00000KT 10SM CLR 24/22 A2999 RMK AO2 T02360215

TAF (pilot weather forecast)

Closest forecast is General Wayne A. Downing Peoria International Airport, 34.9 nm (64.6 km) SSW. Retrieved 2019/08/19 12:22 UTC (1 hour ago):

TAF KPIA 191120Z 1912/2012 00000KT P6SM FEW090 FM191600 VRB05KT P6SM BKN045 FM191900 VRB04KT P6SM VCSH BKN050 FM200000 VRB03KT P6SM SCT250